Main page
Satellite images 10-day forecastsClimateMarine weather Cyclones Lightning AirportsFAQ Newsletter About
Weather : Europe Africa North America South America Asia Australia-Oceania Others
Languages Contact

Waddington, England

RAF Waddington

latitude: 53-10N, longitude: 000-31W, elevation: 68 m


METAR: EGXW 291850Z 29012KT 9999 FEW040 12/02 Q1006 BLU
TAF: missing

Time: 21:05 (20:05 UTC)

Current weather observation

The report was made 1 hour and 15 minutes ago, at 18:50 UTC
Wind 12 kt from the West/Northwest
Temperature 12°C
Humidity 50%
Pressure 1006 hPa
Visibility 10 km or more
Few clouds at a height of 4000 ft

Change units
The information on this site is subject to a disclaimer
Weather : Europe Africa North America South America Asia Australia-Oceania Others
Satellite images 10-day forecastsClimateMarine weather Cyclones Lightning AirportsFAQ Languages Contact Newsletter About